sensor_id;sensor_type;location;lat;lon;timestamp;pressure;altitude;pressure_sealevel;temperature;humidity
79534;BME280;68982;52.160;6.736;2023-06-22T00:00:48;101712.81;;;20.40;64.57
79534;BME280;68982;52.160;6.736;2023-06-22T00:03:14;101715.56;;;20.40;65.44
79534;BME280;68982;52.160;6.736;2023-06-22T00:05:39;101728.75;;;20.32;65.67
79534;BME280;68982;52.160;6.736;2023-06-22T00:08:05;101712.88;;;20.22;65.80
79534;BME280;68982;52.160;6.736;2023-06-22T00:10:30;101714.25;;;20.43;65.10
79534;BME280;68982;52.160;6.736;2023-06-22T00:12:56;101716.69;;;20.51;64.52
79534;BME280;68982;52.160;6.736;2023-06-22T00:15:22;101716.31;;;20.47;64.95
79534;BME280;68982;52.160;6.736;2023-06-22T00:17:49;101710.09;;;20.40;64.67
79534;BME280;68982;52.160;6.736;2023-06-22T00:20:15;101715.84;;;20.20;65.88
79534;BME280;68982;52.160;6.736;2023-06-22T00:22:42;101709.44;;;20.26;65.79
79534;BME280;68982;52.160;6.736;2023-06-22T00:25:08;101700.72;;;20.48;63.86
79534;BME280;68982;52.160;6.736;2023-06-22T00:27:34;101701.00;;;20.58;63.89
79534;BME280;68982;52.160;6.736;2023-06-22T00:30:00;101708.19;;;20.41;65.08
79534;BME280;68982;52.160;6.736;2023-06-22T00:32:25;101708.72;;;20.19;65.84
79534;BME280;68982;52.160;6.736;2023-06-22T00:34:51;101697.69;;;20.07;65.47
79534;BME280;68982;52.160;6.736;2023-06-22T00:37:16;101695.25;;;20.18;66.02
79534;BME280;68982;52.160;6.736;2023-06-22T00:39:45;101710.78;;;20.05;66.39
79534;BME280;68982;52.160;6.736;2023-06-22T00:42:11;101680.84;;;20.22;65.17
79534;BME280;68982;52.160;6.736;2023-06-22T00:44:36;101688.28;;;20.03;66.26
79534;BME280;68982;52.160;6.736;2023-06-22T00:47:03;101683.16;;;20.25;65.28
79534;BME280;68982;52.160;6.736;2023-06-22T00:49:28;101700.03;;;20.22;65.34
79534;BME280;68982;52.160;6.736;2023-06-22T00:51:55;101696.84;;;20.07;66.22
79534;BME280;68982;52.160;6.736;2023-06-22T00:54:21;101702.06;;;19.97;66.24
79534;BME280;68982;52.160;6.736;2023-06-22T00:56:58;101687.50;;;19.96;66.13
79534;BME280;68982;52.160;6.736;2023-06-22T00:59:24;101686.66;;;20.14;65.97
79534;BME280;68982;52.160;6.736;2023-06-22T01:01:51;101690.06;;;20.09;66.18
79534;BME280;68982;52.160;6.736;2023-06-22T01:04:16;101693.69;;;19.92;66.57
79534;BME280;68982;52.160;6.736;2023-06-22T01:06:57;101692.50;;;20.18;65.48
79534;BME280;68982;52.160;6.736;2023-06-22T01:09:29;101692.63;;;19.93;66.94
79534;BME280;68982;52.160;6.736;2023-06-22T01:12:01;101685.88;;;19.77;66.79
79534;BME280;68982;52.160;6.736;2023-06-22T01:16:56;101681.38;;;19.82;66.55
79534;BME280;68982;52.160;6.736;2023-06-22T01:19:39;101677.44;;;19.78;67.03
79534;BME280;68982;52.160;6.736;2023-06-22T01:22:10;101694.75;;;19.91;66.53
79534;BME280;68982;52.160;6.736;2023-06-22T01:27:50;101682.44;;;20.00;66.82
79534;BME280;68982;52.160;6.736;2023-06-22T01:30:18;101677.88;;;19.94;65.97
79534;BME280;68982;52.160;6.736;2023-06-22T01:32:44;101686.56;;;19.91;66.70
79534;BME280;68982;52.160;6.736;2023-06-22T01:35:10;101688.75;;;19.63;67.39
79534;BME280;68982;52.160;6.736;2023-06-22T01:37:38;101683.38;;;19.75;67.24
79534;BME280;68982;52.160;6.736;2023-06-22T01:40:07;101686.53;;;19.54;68.06
79534;BME280;68982;52.160;6.736;2023-06-22T01:42:34;101676.66;;;19.53;68.32
79534;BME280;68982;52.160;6.736;2023-06-22T01:45:00;101673.38;;;19.25;69.76
79534;BME280;68982;52.160;6.736;2023-06-22T01:47:27;101683.66;;;19.49;68.50
79534;BME280;68982;52.160;6.736;2023-06-22T01:49:53;101680.38;;;19.40;68.92
79534;BME280;68982;52.160;6.736;2023-06-22T01:52:19;101684.41;;;19.56;68.19
79534;BME280;68982;52.160;6.736;2023-06-22T01:54:46;101678.50;;;19.15;70.53
79534;BME280;68982;52.160;6.736;2023-06-22T01:57:12;101676.63;;;19.16;70.05
79534;BME280;68982;52.160;6.736;2023-06-22T02:00:03;101681.94;;;19.11;70.41
79534;BME280;68982;52.160;6.736;2023-06-22T02:02:39;101676.78;;;19.21;69.55
79534;BME280;68982;52.160;6.736;2023-06-22T02:05:09;101684.31;;;19.44;69.40
79534;BME280;68982;52.160;6.736;2023-06-22T02:07:53;101678.44;;;19.22;70.30
79534;BME280;68982;52.160;6.736;2023-06-22T02:10:22;101676.84;;;19.14;71.29
79534;BME280;68982;52.160;6.736;2023-06-22T02:12:50;101672.47;;;18.88;72.03
79534;BME280;68982;52.160;6.736;2023-06-22T02:15:16;101678.53;;;18.90;71.53
79534;BME280;68982;52.160;6.736;2023-06-22T02:17:42;101681.81;;;19.24;69.95
79534;BME280;68982;52.160;6.736;2023-06-22T02:20:14;101671.16;;;19.16;70.49
79534;BME280;68982;52.160;6.736;2023-06-22T02:22:39;101670.44;;;19.45;68.94
79534;BME280;68982;52.160;6.736;2023-06-22T02:25:05;101675.09;;;19.20;70.70
79534;BME280;68982;52.160;6.736;2023-06-22T02:27:30;101684.00;;;19.34;69.63
79534;BME280;68982;52.160;6.736;2023-06-22T02:29:56;101673.25;;;19.14;71.17
79534;BME280;68982;52.160;6.736;2023-06-22T02:32:22;101675.69;;;19.03;71.91
79534;BME280;68982;52.160;6.736;2023-06-22T02:34:47;101672.84;;;19.35;69.42
79534;BME280;68982;52.160;6.736;2023-06-22T02:37:16;101667.03;;;19.07;71.06
79534;BME280;68982;52.160;6.736;2023-06-22T02:39:41;101663.38;;;18.94;72.01
79534;BME280;68982;52.160;6.736;2023-06-22T02:42:07;101673.31;;;19.32;70.27
79534;BME280;68982;52.160;6.736;2023-06-22T02:44:32;101671.31;;;19.21;71.89
79534;BME280;68982;52.160;6.736;2023-06-22T02:46:58;101667.06;;;19.25;70.73
79534;BME280;68982;52.160;6.736;2023-06-22T02:49:23;101669.97;;;19.30;70.00
79534;BME280;68982;52.160;6.736;2023-06-22T02:51:49;101664.69;;;19.10;71.13
79534;BME280;68982;52.160;6.736;2023-06-22T02:54:15;101671.22;;;19.09;71.37
79534;BME280;68982;52.160;6.736;2023-06-22T02:56:42;101667.59;;;19.34;69.61
79534;BME280;68982;52.160;6.736;2023-06-22T02:59:08;101673.03;;;18.97;72.17
79534;BME280;68982;52.160;6.736;2023-06-22T03:01:35;101666.22;;;19.06;70.89
79534;BME280;68982;52.160;6.736;2023-06-22T03:04:06;101654.94;;;19.21;70.57
79534;BME280;68982;52.160;6.736;2023-06-22T03:06:32;101655.25;;;18.88;72.78
79534;BME280;68982;52.160;6.736;2023-06-22T03:09:04;101653.66;;;18.98;71.65
79534;BME280;68982;52.160;6.736;2023-06-22T03:11:33;101646.72;;;19.21;70.29
79534;BME280;68982;52.160;6.736;2023-06-22T03:14:00;101645.09;;;19.13;70.25
79534;BME280;68982;52.160;6.736;2023-06-22T03:16:26;101639.25;;;19.10;71.03
79534;BME280;68982;52.160;6.736;2023-06-22T03:18:52;101653.66;;;18.98;71.66
79534;BME280;68982;52.160;6.736;2023-06-22T03:21:19;101665.38;;;19.05;71.76
79534;BME280;68982;52.160;6.736;2023-06-22T03:23:44;101652.88;;;18.91;72.98
79534;BME280;68982;52.160;6.736;2023-06-22T03:26:10;101657.94;;;19.13;71.07
79534;BME280;68982;52.160;6.736;2023-06-22T03:28:36;101658.69;;;19.20;70.54
79534;BME280;68982;52.160;6.736;2023-06-22T03:31:03;101658.03;;;19.24;70.51
79534;BME280;68982;52.160;6.736;2023-06-22T03:33:28;101667.38;;;19.17;70.61
79534;BME280;68982;52.160;6.736;2023-06-22T03:35:54;101662.63;;;19.05;72.47
79534;BME280;68982;52.160;6.736;2023-06-22T03:38:20;101664.63;;;19.17;70.99
79534;BME280;68982;52.160;6.736;2023-06-22T03:40:45;101664.94;;;19.27;69.43
79534;BME280;68982;52.160;6.736;2023-06-22T03:43:11;101652.25;;;19.14;71.95
79534;BME280;68982;52.160;6.736;2023-06-22T03:45:36;101657.41;;;19.22;69.78
79534;BME280;68982;52.160;6.736;2023-06-22T03:48:02;101655.06;;;19.26;70.89
79534;BME280;68982;52.160;6.736;2023-06-22T03:50:27;101655.97;;;19.20;71.38
79534;BME280;68982;52.160;6.736;2023-06-22T03:52:53;101648.31;;;18.85;72.84
79534;BME280;68982;52.160;6.736;2023-06-22T03:55:22;101632.88;;;19.16;71.15
79534;BME280;68982;52.160;6.736;2023-06-22T03:57:50;101635.31;;;19.24;71.08
79534;BME280;68982;52.160;6.736;2023-06-22T04:00:16;101648.22;;;19.17;69.90
79534;BME280;68982;52.160;6.736;2023-06-22T04:02:41;101639.41;;;19.15;71.00
79534;BME280;68982;52.160;6.736;2023-06-22T04:05:09;101636.06;;;19.31;69.89
79534;BME280;68982;52.160;6.736;2023-06-22T04:07:34;101641.81;;;19.04;72.53
79534;BME280;68982;52.160;6.736;2023-06-22T04:10:03;101640.94;;;19.11;72.57
79534;BME280;68982;52.160;6.736;2023-06-22T04:12:29;101639.56;;;19.20;71.54
79534;BME280;68982;52.160;6.736;2023-06-22T04:14:54;101641.41;;;19.26;69.39
79534;BME280;68982;52.160;6.736;2023-06-22T04:17:20;101647.38;;;19.16;72.04
79534;BME280;68982;52.160;6.736;2023-06-22T04:19:45;101650.56;;;19.13;72.01
79534;BME280;68982;52.160;6.736;2023-06-22T04:22:10;101648.50;;;19.09;71.33
79534;BME280;68982;52.160;6.736;2023-06-22T04:24:37;101649.41;;;19.02;72.74
79534;BME280;68982;52.160;6.736;2023-06-22T04:27:03;101642.91;;;19.03;72.44
79534;BME280;68982;52.160;6.736;2023-06-22T04:29:34;101641.47;;;19.38;68.71
79534;BME280;68982;52.160;6.736;2023-06-22T04:32:00;101635.41;;;19.54;68.82
79534;BME280;68982;52.160;6.736;2023-06-22T04:34:28;101636.75;;;19.26;71.27
79534;BME280;68982;52.160;6.736;2023-06-22T04:36:54;101639.41;;;19.33;69.41
79534;BME280;68982;52.160;6.736;2023-06-22T04:39:20;101635.25;;;19.31;70.84
79534;BME280;68982;52.160;6.736;2023-06-22T04:41:45;101636.63;;;18.96;72.16
79534;BME280;68982;52.160;6.736;2023-06-22T04:44:15;101627.09;;;19.05;71.24
79534;BME280;68982;52.160;6.736;2023-06-22T04:46:53;101632.13;;;19.27;69.44
79534;BME280;68982;52.160;6.736;2023-06-22T04:49:20;101626.97;;;19.37;69.79
79534;BME280;68982;52.160;6.736;2023-06-22T04:51:47;101627.88;;;19.31;68.77
79534;BME280;68982;52.160;6.736;2023-06-22T04:54:13;101634.09;;;19.38;69.19
79534;BME280;68982;52.160;6.736;2023-06-22T04:56:38;101632.16;;;19.45;67.69
79534;BME280;68982;52.160;6.736;2023-06-22T04:59:06;101633.06;;;19.39;69.39
79534;BME280;68982;52.160;6.736;2023-06-22T05:01:31;101624.13;;;19.62;67.66
79534;BME280;68982;52.160;6.736;2023-06-22T05:03:57;101631.28;;;19.63;68.36
79534;BME280;68982;52.160;6.736;2023-06-22T05:06:23;101637.81;;;19.62;67.79
79534;BME280;68982;52.160;6.736;2023-06-22T05:08:55;101629.69;;;19.37;70.06
79534;BME280;68982;52.160;6.736;2023-06-22T05:11:27;101627.78;;;19.56;67.95
79534;BME280;68982;52.160;6.736;2023-06-22T05:13:53;101628.31;;;19.65;67.21
79534;BME280;68982;52.160;6.736;2023-06-22T05:16:19;101607.28;;;19.65;67.12
79534;BME280;68982;52.160;6.736;2023-06-22T05:18:55;101620.41;;;19.38;69.09
79534;BME280;68982;52.160;6.736;2023-06-22T05:21:23;101623.31;;;19.62;69.01
79534;BME280;68982;52.160;6.736;2023-06-22T05:23:50;101620.72;;;19.49;68.64
79534;BME280;68982;52.160;6.736;2023-06-22T05:26:15;101623.31;;;19.62;68.14
79534;BME280;68982;52.160;6.736;2023-06-22T05:28:41;101622.78;;;19.53;67.87
79534;BME280;68982;52.160;6.736;2023-06-22T05:31:06;101627.25;;;19.66;68.20
79534;BME280;68982;52.160;6.736;2023-06-22T05:33:32;101633.34;;;19.50;69.49
79534;BME280;68982;52.160;6.736;2023-06-22T05:35:58;101642.47;;;19.62;70.12
79534;BME280;68982;52.160;6.736;2023-06-22T05:38:23;101627.69;;;19.63;67.68
79534;BME280;68982;52.160;6.736;2023-06-22T05:40:49;101595.66;;;19.52;66.78
79534;BME280;68982;52.160;6.736;2023-06-22T05:43:15;101611.66;;;19.66;67.96
79534;BME280;68982;52.160;6.736;2023-06-22T05:45:41;101618.56;;;19.87;67.68
79534;BME280;68982;52.160;6.736;2023-06-22T05:48:06;101621.47;;;19.93;67.46
79534;BME280;68982;52.160;6.736;2023-06-22T05:50:32;101608.88;;;19.73;67.95
79534;BME280;68982;52.160;6.736;2023-06-22T05:52:57;101620.25;;;19.88;67.07
79534;BME280;68982;52.160;6.736;2023-06-22T05:55:23;101630.09;;;20.08;66.79
79534;BME280;68982;52.160;6.736;2023-06-22T05:57:48;101623.09;;;20.12;66.85
79534;BME280;68982;52.160;6.736;2023-06-22T06:00:14;101617.47;;;20.07;67.01
79534;BME280;68982;52.160;6.736;2023-06-22T06:02:40;101639.03;;;20.15;65.87
79534;BME280;68982;52.160;6.736;2023-06-22T06:05:10;101622.94;;;20.07;66.44
79534;BME280;68982;52.160;6.736;2023-06-22T06:07:39;101635.69;;;20.13;66.56
79534;BME280;68982;52.160;6.736;2023-06-22T06:10:05;101652.06;;;20.32;65.63
79534;BME280;68982;52.160;6.736;2023-06-22T06:12:31;101643.50;;;20.28;67.20
79534;BME280;68982;52.160;6.736;2023-06-22T06:14:57;101635.38;;;20.21;67.80
79534;BME280;68982;52.160;6.736;2023-06-22T06:17:22;101644.59;;;20.39;67.22
79534;BME280;68982;52.160;6.736;2023-06-22T06:19:48;101643.31;;;20.53;66.39
79534;BME280;68982;52.160;6.736;2023-06-22T06:22:13;101640.50;;;20.60;65.59
79534;BME280;68982;52.160;6.736;2023-06-22T06:24:39;101643.31;;;20.53;64.83
79534;BME280;68982;52.160;6.736;2023-06-22T06:27:04;101641.97;;;20.32;66.62
79534;BME280;68982;52.160;6.736;2023-06-22T06:29:31;101646.03;;;20.41;65.24
79534;BME280;68982;52.160;6.736;2023-06-22T06:31:56;101617.88;;;20.34;65.19
79534;BME280;68982;52.160;6.736;2023-06-22T06:34:22;101617.44;;;20.37;64.69
79534;BME280;68982;52.160;6.736;2023-06-22T06:36:47;101612.50;;;20.27;64.83
79534;BME280;68982;52.160;6.736;2023-06-22T06:39:13;101622.94;;;20.49;64.10
79534;BME280;68982;52.160;6.736;2023-06-22T06:41:38;101629.00;;;20.51;64.28
79534;BME280;68982;52.160;6.736;2023-06-22T06:44:04;101619.88;;;20.57;63.79
79534;BME280;68982;52.160;6.736;2023-06-22T06:46:30;101625.16;;;20.70;64.63
79534;BME280;68982;52.160;6.736;2023-06-22T06:48:55;101622.41;;;20.70;63.46
79534;BME280;68982;52.160;6.736;2023-06-22T06:51:21;101637.41;;;20.80;63.68
79534;BME280;68982;52.160;6.736;2023-06-22T06:53:46;101626.13;;;20.88;61.72
79534;BME280;68982;52.160;6.736;2023-06-22T06:56:11;101644.69;;;20.86;64.14
79534;BME280;68982;52.160;6.736;2023-06-22T06:58:40;101637.69;;;20.90;63.76
79534;BME280;68982;52.160;6.736;2023-06-22T07:01:07;101604.53;;;20.80;63.68
79534;BME280;68982;52.160;6.736;2023-06-22T07:03:33;101611.56;;;20.76;63.84
79534;BME280;68982;52.160;6.736;2023-06-22T07:05:58;101619.78;;;20.76;64.75
79534;BME280;68982;52.160;6.736;2023-06-22T07:08:24;101619.88;;;20.81;63.83
79534;BME280;68982;52.160;6.736;2023-06-22T07:10:49;101608.81;;;20.76;64.16
79534;BME280;68982;52.160;6.736;2023-06-22T07:13:15;101625.84;;;20.89;63.63
79534;BME280;68982;52.160;6.736;2023-06-22T07:15:40;101619.78;;;20.99;64.17
79534;BME280;68982;52.160;6.736;2023-06-22T07:18:06;101602.97;;;21.07;62.66
79534;BME280;68982;52.160;6.736;2023-06-22T07:20:31;101608.69;;;21.06;64.24
79534;BME280;68982;52.160;6.736;2023-06-22T07:22:57;101603.91;;;21.13;63.26
79534;BME280;68982;52.160;6.736;2023-06-22T07:25:23;101603.09;;;21.13;62.86
79534;BME280;68982;52.160;6.736;2023-06-22T07:28:00;101602.97;;;21.19;63.67
79534;BME280;68982;52.160;6.736;2023-06-22T07:30:27;101603.78;;;21.20;63.00
79534;BME280;68982;52.160;6.736;2023-06-22T07:32:53;101605.09;;;21.29;64.58
79534;BME280;68982;52.160;6.736;2023-06-22T07:35:19;101591.97;;;21.31;63.79
79534;BME280;68982;52.160;6.736;2023-06-22T07:37:44;101601.72;;;21.39;62.89
79534;BME280;68982;52.160;6.736;2023-06-22T07:40:10;101589.47;;;21.41;62.82
79534;BME280;68982;52.160;6.736;2023-06-22T07:42:35;101597.72;;;21.41;62.57
79534;BME280;68982;52.160;6.736;2023-06-22T07:45:02;101594.09;;;21.41;62.17
79534;BME280;68982;52.160;6.736;2023-06-22T07:47:28;101594.56;;;21.38;61.90
79534;BME280;68982;52.160;6.736;2023-06-22T07:49:55;101594.97;;;21.41;62.99
79534;BME280;68982;52.160;6.736;2023-06-22T07:52:23;101587.31;;;21.43;62.67
79534;BME280;68982;52.160;6.736;2023-06-22T07:54:49;101596.47;;;21.49;62.58
79534;BME280;68982;52.160;6.736;2023-06-22T07:57:15;101589.19;;;21.55;63.46
79534;BME280;68982;52.160;6.736;2023-06-22T07:59:40;101572.00;;;21.47;62.85
79534;BME280;68982;52.160;6.736;2023-06-22T08:02:06;101585.72;;;21.59;63.13
79534;BME280;68982;52.160;6.736;2023-06-22T08:04:33;101571.13;;;21.59;61.61
79534;BME280;68982;52.160;6.736;2023-06-22T08:07:00;101585.00;;;21.64;63.51
79534;BME280;68982;52.160;6.736;2023-06-22T08:09:27;101584.88;;;21.59;62.00
79534;BME280;68982;52.160;6.736;2023-06-22T08:11:53;101585.00;;;21.64;64.88
79534;BME280;68982;52.160;6.736;2023-06-22T08:14:19;101571.00;;;21.65;62.86
79534;BME280;68982;52.160;6.736;2023-06-22T08:16:44;101570.03;;;21.71;62.37
79534;BME280;68982;52.160;6.736;2023-06-22T08:19:10;101581.53;;;21.85;63.19
79534;BME280;68982;52.160;6.736;2023-06-22T08:21:35;101572.75;;;21.83;62.15
79534;BME280;68982;52.160;6.736;2023-06-22T08:24:01;101560.00;;;21.77;62.44
79534;BME280;68982;52.160;6.736;2023-06-22T08:26:27;101581.75;;;21.96;62.28
79534;BME280;68982;52.160;6.736;2023-06-22T08:28:52;101574.84;;;21.93;63.29
79534;BME280;68982;52.160;6.736;2023-06-22T08:31:18;101585.00;;;22.09;61.36
79534;BME280;68982;52.160;6.736;2023-06-22T08:33:43;101549.09;;;21.82;62.01
79534;BME280;68982;52.160;6.736;2023-06-22T08:36:11;101577.84;;;22.08;62.44
79534;BME280;68982;52.160;6.736;2023-06-22T08:38:38;101566.00;;;21.91;62.73
79534;BME280;68982;52.160;6.736;2023-06-22T08:41:03;101566.03;;;22.08;62.88
79534;BME280;68982;52.160;6.736;2023-06-22T08:43:29;101566.88;;;22.08;62.41
79534;BME280;68982;52.160;6.736;2023-06-22T08:45:54;101558.63;;;22.08;62.27
79534;BME280;68982;52.160;6.736;2023-06-22T08:48:20;101547.28;;;22.05;61.21
79534;BME280;68982;52.160;6.736;2023-06-22T08:50:45;101534.38;;;22.05;63.53
79534;BME280;68982;52.160;6.736;2023-06-22T08:53:11;101526.19;;;22.22;61.44
79534;BME280;68982;52.160;6.736;2023-06-22T08:55:36;101530.34;;;22.25;60.77
79534;BME280;68982;52.160;6.736;2023-06-22T08:58:02;101520.44;;;22.41;61.51
79534;BME280;68982;52.160;6.736;2023-06-22T09:00:28;101525.28;;;22.33;61.62
79534;BME280;68982;52.160;6.736;2023-06-22T09:02:57;101513.13;;;22.46;61.32
79534;BME280;68982;52.160;6.736;2023-06-22T09:05:24;101523.06;;;22.69;60.14
79534;BME280;68982;52.160;6.736;2023-06-22T09:07:51;101520.78;;;23.00;60.11
79534;BME280;68982;52.160;6.736;2023-06-22T09:10:16;101525.38;;;23.16;60.01
79534;BME280;68982;52.160;6.736;2023-06-22T09:12:42;101502.38;;;23.50;60.09
79534;BME280;68982;52.160;6.736;2023-06-22T09:15:07;101508.25;;;23.58;58.84
79534;BME280;68982;52.160;6.736;2023-06-22T09:17:33;101512.63;;;23.54;59.20
79534;BME280;68982;52.160;6.736;2023-06-22T09:19:59;101519.00;;;23.33;58.02
79534;BME280;68982;52.160;6.736;2023-06-22T09:22:25;101518.66;;;23.07;57.37
79534;BME280;68982;52.160;6.736;2023-06-22T09:24:55;101511.81;;;23.10;58.31
79534;BME280;68982;52.160;6.736;2023-06-22T09:27:21;101517.97;;;23.17;58.37
79534;BME280;68982;52.160;6.736;2023-06-22T09:29:46;101510.88;;;23.21;58.87
79534;BME280;68982;52.160;6.736;2023-06-22T09:32:11;101506.78;;;23.02;58.29
79534;BME280;68982;52.160;6.736;2023-06-22T09:34:37;101513.50;;;23.11;57.83
79534;BME280;68982;52.160;6.736;2023-06-22T09:37:02;101501.53;;;23.00;58.68
79534;BME280;68982;52.160;6.736;2023-06-22T09:39:28;101512.00;;;23.03;58.65
79534;BME280;68982;52.160;6.736;2023-06-22T09:41:53;101511.69;;;23.00;59.76
79534;BME280;68982;52.160;6.736;2023-06-22T09:44:19;101517.50;;;23.03;59.36
79534;BME280;68982;52.160;6.736;2023-06-22T09:46:44;101517.34;;;22.93;60.30
79534;BME280;68982;52.160;6.736;2023-06-22T09:49:10;101521.16;;;23.09;59.68
79534;BME280;68982;52.160;6.736;2023-06-22T09:51:35;101515.28;;;23.00;58.71
79534;BME280;68982;52.160;6.736;2023-06-22T09:54:01;101500.22;;;22.86;59.58
79534;BME280;68982;52.160;6.736;2023-06-22T09:56:26;101508.66;;;22.79;58.28
79534;BME280;68982;52.160;6.736;2023-06-22T09:58:53;101504.63;;;22.87;59.40
79534;BME280;68982;52.160;6.736;2023-06-22T10:01:18;101503.78;;;22.86;58.86
79534;BME280;68982;52.160;6.736;2023-06-22T10:03:46;101493.19;;;22.95;58.54
79534;BME280;68982;52.160;6.736;2023-06-22T10:06:11;101489.84;;;22.93;58.80
79534;BME280;68982;52.160;6.736;2023-06-22T10:08:37;101491.50;;;22.94;59.09
79534;BME280;68982;52.160;6.736;2023-06-22T10:11:03;101486.97;;;22.83;59.54
79534;BME280;68982;52.160;6.736;2023-06-22T10:13:29;101495.59;;;22.91;59.07
79534;BME280;68982;52.160;6.736;2023-06-22T10:15:54;101495.34;;;22.93;59.38
79534;BME280;68982;52.160;6.736;2023-06-22T10:18:20;101490.53;;;23.00;60.21
79534;BME280;68982;52.160;6.736;2023-06-22T10:20:48;101486.53;;;22.91;59.01
79534;BME280;68982;52.160;6.736;2023-06-22T10:23:13;101484.19;;;23.00;59.59
79534;BME280;68982;52.160;6.736;2023-06-22T10:25:39;101481.09;;;22.96;58.60
79534;BME280;68982;52.160;6.736;2023-06-22T10:28:04;101492.25;;;23.06;59.04
79534;BME280;68982;52.160;6.736;2023-06-22T10:30:30;101496.06;;;23.05;59.80
79534;BME280;68982;52.160;6.736;2023-06-22T10:32:55;101500.75;;;23.05;60.47
79534;BME280;68982;52.160;6.736;2023-06-22T10:35:21;101499.09;;;23.04;59.70
79534;BME280;68982;52.160;6.736;2023-06-22T10:37:46;101497.69;;;23.01;59.44
79534;BME280;68982;52.160;6.736;2023-06-22T10:40:13;101491.78;;;22.92;59.18
79534;BME280;68982;52.160;6.736;2023-06-22T10:42:39;101489.84;;;22.93;58.69
79534;BME280;68982;52.160;6.736;2023-06-22T10:45:05;101491.22;;;22.90;59.67
79534;BME280;68982;52.160;6.736;2023-06-22T10:47:30;101485.94;;;22.89;60.24
79534;BME280;68982;52.160;6.736;2023-06-22T10:49:56;101490.88;;;22.87;59.96
79534;BME280;68982;52.160;6.736;2023-06-22T10:52:21;101487.53;;;22.85;60.46
79534;BME280;68982;52.160;6.736;2023-06-22T10:54:46;101463.94;;;22.67;59.18
79534;BME280;68982;52.160;6.736;2023-06-22T10:57:12;101480.50;;;22.94;59.55
79534;BME280;68982;52.160;6.736;2023-06-22T10:59:37;101477.13;;;22.87;59.88
79534;BME280;68982;52.160;6.736;2023-06-22T11:02:03;101466.66;;;22.84;59.51
79534;BME280;68982;52.160;6.736;2023-06-22T11:04:28;101453.88;;;22.94;58.70
79534;BME280;68982;52.160;6.736;2023-06-22T11:06:54;101469.84;;;22.97;59.82
79534;BME280;68982;52.160;6.736;2023-06-22T11:09:21;101472.34;;;22.99;59.69
79534;BME280;68982;52.160;6.736;2023-06-22T11:11:48;101468.34;;;22.90;60.43
79534;BME280;68982;52.160;6.736;2023-06-22T11:14:14;101449.63;;;22.87;59.64
79534;BME280;68982;52.160;6.736;2023-06-22T11:16:40;101452.59;;;23.02;58.46
79534;BME280;68982;52.160;6.736;2023-06-22T11:19:05;101452.38;;;22.87;59.74
79534;BME280;68982;52.160;6.736;2023-06-22T11:21:31;101445.69;;;23.00;59.04
79534;BME280;68982;52.160;6.736;2023-06-22T11:23:58;101404.66;;;22.76;60.33
79534;BME280;68982;52.160;6.736;2023-06-22T11:26:24;101436.41;;;23.06;59.48
79534;BME280;68982;52.160;6.736;2023-06-22T11:28:52;101427.19;;;22.95;59.77
79534;BME280;68982;52.160;6.736;2023-06-22T11:31:17;101433.41;;;23.07;58.71
79534;BME280;68982;52.160;6.736;2023-06-22T11:33:43;101420.28;;;23.14;58.53
79534;BME280;68982;52.160;6.736;2023-06-22T11:36:11;101419.50;;;22.97;59.12
79534;BME280;68982;52.160;6.736;2023-06-22T11:38:36;101430.59;;;23.02;58.97
79534;BME280;68982;52.160;6.736;2023-06-22T11:41:05;101422.34;;;23.02;58.71
79534;BME280;68982;52.160;6.736;2023-06-22T11:43:30;101406.84;;;22.96;58.92
79534;BME280;68982;52.160;6.736;2023-06-22T11:45:56;101410.00;;;23.05;59.26
79534;BME280;68982;52.160;6.736;2023-06-22T11:48:23;101423.81;;;22.88;61.22
79534;BME280;68982;52.160;6.736;2023-06-22T11:50:49;101413.44;;;22.95;59.43
79534;BME280;68982;52.160;6.736;2023-06-22T11:53:15;101408.19;;;22.93;59.04
79534;BME280;68982;52.160;6.736;2023-06-22T11:55:43;101409.00;;;22.94;59.68
79534;BME280;68982;52.160;6.736;2023-06-22T11:58:08;101399.50;;;22.80;60.49
79534;BME280;68982;52.160;6.736;2023-06-22T12:00:37;101402.06;;;22.86;59.82
79534;BME280;68982;52.160;6.736;2023-06-22T12:03:02;101404.56;;;22.88;60.51
79534;BME280;68982;52.160;6.736;2023-06-22T12:05:28;101400.91;;;22.82;60.00
79534;BME280;68982;52.160;6.736;2023-06-22T12:07:53;101406.16;;;22.84;60.95
79534;BME280;68982;52.160;6.736;2023-06-22T12:10:20;101414.50;;;22.72;60.80
79534;BME280;68982;52.160;6.736;2023-06-22T12:12:46;101418.41;;;22.76;60.20
79534;BME280;68982;52.160;6.736;2023-06-22T12:15:11;101421.25;;;22.81;60.40
79534;BME280;68982;52.160;6.736;2023-06-22T12:17:37;101416.69;;;22.70;61.45
79534;BME280;68982;52.160;6.736;2023-06-22T12:20:03;101421.06;;;22.66;60.72
79534;BME280;68982;52.160;6.736;2023-06-22T12:22:34;101421.56;;;22.63;63.90
79534;BME280;68982;52.160;6.736;2023-06-22T12:25:00;101432.72;;;22.56;63.64
79534;BME280;68982;52.160;6.736;2023-06-22T12:27:25;101425.38;;;22.40;65.51
79534;BME280;68982;52.160;6.736;2023-06-22T12:29:51;101436.84;;;22.37;66.65
79534;BME280;68982;52.160;6.736;2023-06-22T12:32:17;101417.72;;;22.25;65.54
79534;BME280;68982;52.160;6.736;2023-06-22T12:34:43;101432.13;;;22.32;63.54
79534;BME280;68982;52.160;6.736;2023-06-22T12:37:08;101423.31;;;22.13;65.75
79534;BME280;68982;52.160;6.736;2023-06-22T12:39:34;101438.50;;;22.21;64.21
79534;BME280;68982;52.160;6.736;2023-06-22T12:42:00;101424.06;;;22.08;64.66
79534;BME280;68982;52.160;6.736;2023-06-22T12:44:25;101430.31;;;22.04;68.75
79534;BME280;68982;52.160;6.736;2023-06-22T12:46:51;101433.13;;;22.09;65.73
79534;BME280;68982;52.160;6.736;2023-06-22T12:49:16;101427.81;;;22.02;69.10
79534;BME280;68982;52.160;6.736;2023-06-22T12:51:42;101428.16;;;22.06;66.91